sensor_id;sensor_type;location;lat;lon;timestamp;pressure;altitude;pressure_sealevel;temperature;humidity
13836;BME280;6988;52.614;13.500;2023-09-07T00:02:37;53853.75;;;-143.77;67.26
13836;BME280;6988;52.614;13.500;2023-09-07T00:07:29;53859.91;;;-143.77;67.25
13836;BME280;6988;52.614;13.500;2023-09-07T00:12:21;53892.75;;;-143.77;67.58
13836;BME280;6988;52.614;13.500;2023-09-07T00:17:14;53894.78;;;-143.77;67.80
13836;BME280;6988;52.614;13.500;2023-09-07T00:22:06;53900.94;;;-143.77;67.87
13836;BME280;6988;52.614;13.500;2023-09-07T00:26:59;53884.53;;;-143.77;68.15
13836;BME280;6988;52.614;13.500;2023-09-07T00:31:50;53898.91;;;-143.77;68.65
13836;BME280;6988;52.614;13.500;2023-09-07T00:36:43;53907.09;;;-143.77;68.45
13836;BME280;6988;52.614;13.500;2023-09-07T00:41:35;53892.75;;;-143.77;68.65
13836;BME280;6988;52.614;13.500;2023-09-07T00:46:27;53909.16;;;-143.77;68.54
13836;BME280;6988;52.614;13.500;2023-09-07T00:51:19;53909.16;;;-143.77;68.94
13836;BME280;6988;52.614;13.500;2023-09-07T00:56:13;53911.22;;;-143.77;68.98
13836;BME280;6988;52.614;13.500;2023-09-07T01:01:06;53921.47;;;-143.77;69.28
13836;BME280;6988;52.614;13.500;2023-09-07T01:06:06;53935.84;;;-143.77;69.29
13836;BME280;6988;52.614;13.500;2023-09-07T01:10:59;53900.94;;;-143.77;69.76
13836;BME280;6988;52.614;13.500;2023-09-07T01:15:53;53935.84;;;-143.77;70.00
13836;BME280;6988;52.614;13.500;2023-09-07T01:20:46;53950.19;;;-143.77;69.91
13836;BME280;6988;52.614;13.500;2023-09-07T01:25:41;53929.69;;;-143.77;70.13
13836;BME280;6988;52.614;13.500;2023-09-07T01:30:37;53925.56;;;-143.77;70.18
13836;BME280;6988;52.614;13.500;2023-09-07T01:35:31;53952.25;;;-143.77;70.13
13836;BME280;6988;52.614;13.500;2023-09-07T01:40:24;53933.78;;;-143.77;70.11
13836;BME280;6988;52.614;13.500;2023-09-07T01:45:17;53952.25;;;-143.77;70.29
13836;BME280;6988;52.614;13.500;2023-09-07T01:50:09;53915.31;;;-143.77;70.31
13836;BME280;6988;52.614;13.500;2023-09-07T01:55:02;53950.19;;;-143.77;70.56
13836;BME280;6988;52.614;13.500;2023-09-07T01:59:54;53941.97;;;-143.77;70.64
13836;BME280;6988;52.614;13.500;2023-09-07T02:04:47;53927.63;;;-143.77;70.36
13836;BME280;6988;52.614;13.500;2023-09-07T02:09:40;53989.16;;;-143.77;70.82
13836;BME280;6988;52.614;13.500;2023-09-07T02:14:33;53950.19;;;-143.77;70.69
13836;BME280;6988;52.614;13.500;2023-09-07T02:19:25;53993.28;;;-143.77;70.62
13836;BME280;6988;52.614;13.500;2023-09-07T02:24:19;53962.50;;;-143.77;70.77
13836;BME280;6988;52.614;13.500;2023-09-07T02:29:11;53966.59;;;-143.77;71.17
13836;BME280;6988;52.614;13.500;2023-09-07T02:34:03;53989.16;;;-143.77;71.37
13836;BME280;6988;52.614;13.500;2023-09-07T02:38:56;53978.91;;;-143.77;71.69
13836;BME280;6988;52.614;13.500;2023-09-07T02:43:50;53966.59;;;-143.77;72.11
13836;BME280;6988;52.614;13.500;2023-09-07T02:48:44;53991.22;;;-143.77;72.25
13836;BME280;6988;52.614;13.500;2023-09-07T02:53:36;53997.38;;;-143.77;72.41
13836;BME280;6988;52.614;13.500;2023-09-07T02:58:28;53985.06;;;-143.77;72.39
13836;BME280;6988;52.614;13.500;2023-09-07T03:03:21;53985.06;;;-143.77;72.63
13836;BME280;6988;52.614;13.500;2023-09-07T03:08:14;53995.31;;;-143.77;72.50
13836;BME280;6988;52.614;13.500;2023-09-07T03:13:06;54001.47;;;-143.77;72.47
13836;BME280;6988;52.614;13.500;2023-09-07T03:17:59;53987.13;;;-143.77;72.46
13836;BME280;6988;52.614;13.500;2023-09-07T03:22:53;54022.00;;;-143.77;72.18
13836;BME280;6988;52.614;13.500;2023-09-07T03:27:44;54019.94;;;-143.77;72.55
13836;BME280;6988;52.614;13.500;2023-09-07T03:32:38;54036.38;;;-143.77;72.11
13836;BME280;6988;52.614;13.500;2023-09-07T03:37:30;54017.91;;;-143.77;72.21
13836;BME280;6988;52.614;13.500;2023-09-07T03:42:23;54017.91;;;-143.77;72.14
13836;BME280;6988;52.614;13.500;2023-09-07T03:47:15;54038.41;;;-143.77;72.31
13836;BME280;6988;52.614;13.500;2023-09-07T03:52:09;54032.25;;;-143.77;72.86
13836;BME280;6988;52.614;13.500;2023-09-07T03:57:01;54046.63;;;-143.77;72.97
13836;BME280;6988;52.614;13.500;2023-09-07T04:01:55;54028.16;;;-143.77;72.86
13836;BME280;6988;52.614;13.500;2023-09-07T04:06:47;54034.31;;;-143.77;72.90
13836;BME280;6988;52.614;13.500;2023-09-07T04:11:41;54048.66;;;-143.77;72.72
13836;BME280;6988;52.614;13.500;2023-09-07T04:16:33;54042.50;;;-143.77;72.70
13836;BME280;6988;52.614;13.500;2023-09-07T04:21:26;54060.97;;;-143.77;72.95
13836;BME280;6988;52.614;13.500;2023-09-07T04:26:18;54044.56;;;-143.77;72.83
13836;BME280;6988;52.614;13.500;2023-09-07T04:31:10;54044.56;;;-143.77;72.99
13836;BME280;6988;52.614;13.500;2023-09-07T04:36:08;54040.47;;;-143.77;73.37
13836;BME280;6988;52.614;13.500;2023-09-07T04:41:07;54048.66;;;-143.77;73.45
13836;BME280;6988;52.614;13.500;2023-09-07T04:45:59;54060.97;;;-143.77;73.29
13836;BME280;6988;52.614;13.500;2023-09-07T04:50:58;54069.19;;;-143.77;73.29
13836;BME280;6988;52.614;13.500;2023-09-07T04:55:50;54056.88;;;-143.77;73.43
13836;BME280;6988;52.614;13.500;2023-09-07T05:00:43;54054.81;;;-143.77;73.34
13836;BME280;6988;52.614;13.500;2023-09-07T05:05:35;54081.50;;;-143.77;73.51
13836;BME280;6988;52.614;13.500;2023-09-07T05:10:27;54114.31;;;-143.77;73.81
13836;BME280;6988;52.614;13.500;2023-09-07T05:15:19;54032.25;;;-143.77;76.31
13836;BME280;6988;52.614;13.500;2023-09-07T05:20:14;54024.06;;;-143.77;76.32
13836;BME280;6988;52.614;13.500;2023-09-07T05:25:06;54044.56;;;-143.77;75.31
13836;BME280;6988;52.614;13.500;2023-09-07T05:29:59;54032.25;;;-143.77;74.82
13836;BME280;6988;52.614;13.500;2023-09-07T05:34:51;54030.22;;;-143.77;74.78
13836;BME280;6988;52.614;13.500;2023-09-07T05:39:44;54044.56;;;-143.77;75.08
13836;BME280;6988;52.614;13.500;2023-09-07T05:44:36;54052.78;;;-143.77;75.26
13836;BME280;6988;52.614;13.500;2023-09-07T05:49:29;54032.25;;;-143.77;75.86
13836;BME280;6988;52.614;13.500;2023-09-07T05:54:22;54030.22;;;-143.77;76.81
13836;BME280;6988;52.614;13.500;2023-09-07T05:59:15;53995.31;;;-143.77;77.46
13836;BME280;6988;52.614;13.500;2023-09-07T06:04:07;53962.50;;;-143.77;78.52
13836;BME280;6988;52.614;13.500;2023-09-07T06:09:01;53974.81;;;-143.77;78.81
13836;BME280;6988;52.614;13.500;2023-09-07T06:13:54;53937.88;;;-143.77;78.82
13836;BME280;6988;52.614;13.500;2023-09-07T06:18:48;53946.09;;;-143.77;79.17
13836;BME280;6988;52.614;13.500;2023-09-07T06:23:40;53855.81;;;-143.77;77.96
13836;BME280;6988;52.614;13.500;2023-09-07T06:28:32;53798.38;;;-143.77;75.59
13836;BME280;6988;52.614;13.500;2023-09-07T06:33:26;53765.53;;;-143.77;72.46
13836;BME280;6988;52.614;13.500;2023-09-07T06:38:20;53704.00;;;-143.77;69.38
13836;BME280;6988;52.614;13.500;2023-09-07T06:43:13;53621.94;;;-143.77;67.09
13836;BME280;6988;52.614;13.500;2023-09-07T06:48:07;53708.09;;;-143.77;64.82
13836;BME280;6988;52.614;13.500;2023-09-07T06:52:59;53576.81;;;-143.77;63.63
13836;BME280;6988;52.614;13.500;2023-09-07T06:57:53;53658.88;;;-143.77;61.84
13836;BME280;6988;52.614;13.500;2023-09-07T07:02:46;53527.56;;;-143.77;58.96
13836;BME280;6988;52.614;13.500;2023-09-07T07:07:39;53498.84;;;-143.77;58.44
13836;BME280;6988;52.614;13.500;2023-09-07T07:12:31;53507.06;;;-143.77;58.44
13836;BME280;6988;52.614;13.500;2023-09-07T07:17:27;53554.25;;;-143.77;56.60
13836;BME280;6988;52.614;13.500;2023-09-07T07:22:19;53455.78;;;-143.77;55.34
13836;BME280;6988;52.614;13.500;2023-09-07T07:27:13;53511.16;;;-143.77;55.07
13836;BME280;6988;52.614;13.500;2023-09-07T07:32:06;53375.78;;;-143.77;53.94
13836;BME280;6988;52.614;13.500;2023-09-07T07:37:00;53345.00;;;-143.77;50.34
13836;BME280;6988;52.614;13.500;2023-09-07T07:41:52;53320.38;;;-143.77;48.82
13836;BME280;6988;52.614;13.500;2023-09-07T07:46:44;53314.22;;;-143.77;48.74
13836;BME280;6988;52.614;13.500;2023-09-07T07:51:37;53308.06;;;-143.77;47.40
13836;BME280;6988;52.614;13.500;2023-09-07T07:56:30;53293.72;;;-143.77;46.85
13836;BME280;6988;52.614;13.500;2023-09-07T08:01:22;53332.69;;;-143.77;47.16
13836;BME280;6988;52.614;13.500;2023-09-07T08:06:18;53269.09;;;-143.77;46.20
13836;BME280;6988;52.614;13.500;2023-09-07T08:11:11;53301.91;;;-143.77;45.18
13836;BME280;6988;52.614;13.500;2023-09-07T08:16:06;53289.63;;;-143.77;43.79
13836;BME280;6988;52.614;13.500;2023-09-07T08:20:58;53168.59;;;-143.77;44.46
13836;BME280;6988;52.614;13.500;2023-09-07T08:25:51;53180.91;;;-143.77;43.60
13836;BME280;6988;52.614;13.500;2023-09-07T08:30:45;53248.59;;;-143.77;42.55
13836;BME280;6988;52.614;13.500;2023-09-07T08:35:39;53154.22;;;-143.77;41.43
13836;BME280;6988;52.614;13.500;2023-09-07T08:40:35;53131.66;;;-143.77;41.32
13836;BME280;6988;52.614;13.500;2023-09-07T08:45:31;53109.09;;;-143.77;40.50
13836;BME280;6988;52.614;13.500;2023-09-07T08:50:28;53105.00;;;-143.77;39.91
13836;BME280;6988;52.614;13.500;2023-09-07T08:55:23;53092.69;;;-143.77;39.70
13836;BME280;6988;52.614;13.500;2023-09-07T09:00:16;53113.22;;;-143.77;39.49
13836;BME280;6988;52.614;13.500;2023-09-07T09:05:12;53166.53;;;-143.77;39.19
13836;BME280;6988;52.614;13.500;2023-09-07T09:10:08;53131.66;;;-143.77;38.08
13836;BME280;6988;52.614;13.500;2023-09-07T09:15:02;53031.16;;;-143.77;38.44
13836;BME280;6988;52.614;13.500;2023-09-07T09:19:55;53035.25;;;-143.77;37.73
13836;BME280;6988;52.614;13.500;2023-09-07T09:24:47;53006.53;;;-143.77;37.48
13836;BME280;6988;52.614;13.500;2023-09-07T09:29:40;53014.75;;;-143.77;37.32
13836;BME280;6988;52.614;13.500;2023-09-07T09:34:37;53022.94;;;-143.77;37.37
13836;BME280;6988;52.614;13.500;2023-09-07T09:39:29;53012.69;;;-143.77;36.52
13836;BME280;6988;52.614;13.500;2023-09-07T09:44:23;53061.94;;;-143.77;36.64
13836;BME280;6988;52.614;13.500;2023-09-07T09:49:17;53039.38;;;-143.77;36.34
13836;BME280;6988;52.614;13.500;2023-09-07T09:54:12;52990.13;;;-143.77;36.35
13836;BME280;6988;52.614;13.500;2023-09-07T09:59:05;53006.53;;;-143.77;35.92
13836;BME280;6988;52.614;13.500;2023-09-07T10:03:57;52947.06;;;-143.77;35.89
13836;BME280;6988;52.614;13.500;2023-09-07T10:08:57;53035.25;;;-143.77;36.74
13836;BME280;6988;52.614;13.500;2023-09-07T10:13:57;52971.69;;;-143.77;35.98
13836;BME280;6988;52.614;13.500;2023-09-07T10:18:49;53010.66;;;-143.77;36.19
13836;BME280;6988;52.614;13.500;2023-09-07T10:23:43;52920.41;;;-143.77;35.75
13836;BME280;6988;52.614;13.500;2023-09-07T10:28:38;52889.63;;;-143.77;35.65
13836;BME280;6988;52.614;13.500;2023-09-07T10:33:33;52940.91;;;-143.77;35.34
13836;BME280;6988;52.614;13.500;2023-09-07T10:38:25;52986.03;;;-143.77;35.06
13836;BME280;6988;52.614;13.500;2023-09-07T10:43:17;52877.31;;;-143.77;35.52
13836;BME280;6988;52.614;13.500;2023-09-07T10:48:10;52895.78;;;-143.77;35.25
13836;BME280;6988;52.614;13.500;2023-09-07T10:53:04;52910.13;;;-143.77;35.18
13836;BME280;6988;52.614;13.500;2023-09-07T10:57:56;52824.00;;;-143.77;35.01
13836;BME280;6988;52.614;13.500;2023-09-07T11:02:48;52826.03;;;-143.77;34.19
13836;BME280;6988;52.614;13.500;2023-09-07T11:07:40;52862.97;;;-143.77;35.13
13836;BME280;6988;52.614;13.500;2023-09-07T11:12:40;52834.25;;;-143.77;33.80
13836;BME280;6988;52.614;13.500;2023-09-07T11:17:32;52793.22;;;-143.77;34.32
13836;BME280;6988;52.614;13.500;2023-09-07T11:22:24;52826.03;;;-143.77;33.41
13836;BME280;6988;52.614;13.500;2023-09-07T11:27:20;52990.13;;;-143.77;34.16
13836;BME280;6988;52.614;13.500;2023-09-07T11:32:14;52844.50;;;-143.77;33.79
13836;BME280;6988;52.614;13.500;2023-09-07T11:37:12;52871.16;;;-143.77;33.84
13836;BME280;6988;52.614;13.500;2023-09-07T11:42:04;52826.03;;;-143.77;33.76
13836;BME280;6988;52.614;13.500;2023-09-07T11:46:56;52895.78;;;-143.77;34.78
13836;BME280;6988;52.614;13.500;2023-09-07T11:51:49;52817.84;;;-143.77;34.38
13836;BME280;6988;52.614;13.500;2023-09-07T11:56:41;52846.56;;;-143.77;34.92
13836;BME280;6988;52.614;13.500;2023-09-07T12:01:36;52840.41;;;-143.77;34.23
13836;BME280;6988;52.614;13.500;2023-09-07T12:06:30;52869.13;;;-143.77;34.20
13836;BME280;6988;52.614;13.500;2023-09-07T12:11:23;52840.41;;;-143.77;33.83
13836;BME280;6988;52.614;13.500;2023-09-07T12:16:15;52860.91;;;-143.77;34.87
13836;BME280;6988;52.614;13.500;2023-09-07T12:21:07;52826.03;;;-143.77;34.49
13836;BME280;6988;52.614;13.500;2023-09-07T12:26:02;52883.47;;;-143.77;34.66
13836;BME280;6988;52.614;13.500;2023-09-07T12:30:56;52899.88;;;-143.77;33.97
13836;BME280;6988;52.614;13.500;2023-09-07T12:35:49;52926.56;;;-143.77;34.44
13836;BME280;6988;52.614;13.500;2023-09-07T12:40:40;52901.94;;;-143.77;35.02
13836;BME280;6988;52.614;13.500;2023-09-07T12:45:32;52928.59;;;-143.77;33.75
13836;BME280;6988;52.614;13.500;2023-09-07T12:50:25;52904.00;;;-143.77;33.66
13836;BME280;6988;52.614;13.500;2023-09-07T12:55:17;52949.13;;;-143.77;34.50
13836;BME280;6988;52.614;13.500;2023-09-07T13:00:11;52926.56;;;-143.77;33.87
13836;BME280;6988;52.614;13.500;2023-09-07T13:05:04;52953.22;;;-143.77;33.26
13836;BME280;6988;52.614;13.500;2023-09-07T13:09:57;52961.41;;;-143.77;32.95
13836;BME280;6988;52.614;13.500;2023-09-07T13:14:49;52934.75;;;-143.77;33.01
13836;BME280;6988;52.614;13.500;2023-09-07T13:19:41;52928.59;;;-143.77;32.68
13836;BME280;6988;52.614;13.500;2023-09-07T13:24:34;52961.41;;;-143.77;33.01
13836;BME280;6988;52.614;13.500;2023-09-07T13:29:29;52940.91;;;-143.77;33.19
13836;BME280;6988;52.614;13.500;2023-09-07T13:34:22;52977.81;;;-143.77;33.38
13836;BME280;6988;52.614;13.500;2023-09-07T13:39:13;52994.25;;;-143.77;33.23
13836;BME280;6988;52.614;13.500;2023-09-07T13:44:05;53002.44;;;-143.77;33.84
13836;BME280;6988;52.614;13.500;2023-09-07T13:49:00;52990.13;;;-143.77;33.68
13836;BME280;6988;52.614;13.500;2023-09-07T13:53:52;53002.44;;;-143.77;33.58
13836;BME280;6988;52.614;13.500;2023-09-07T13:58:43;53018.84;;;-143.77;34.30
13836;BME280;6988;52.614;13.500;2023-09-07T14:03:36;53022.94;;;-143.77;34.18
13836;BME280;6988;52.614;13.500;2023-09-07T14:08:29;53027.06;;;-143.77;34.48
13836;BME280;6988;52.614;13.500;2023-09-07T14:13:23;53006.53;;;-143.77;33.81
13836;BME280;6988;52.614;13.500;2023-09-07T14:18:15;52990.13;;;-143.77;34.24
13836;BME280;6988;52.614;13.500;2023-09-07T14:23:07;52977.81;;;-143.77;34.23
13836;BME280;6988;52.614;13.500;2023-09-07T14:28:01;52971.69;;;-143.77;33.91
13836;BME280;6988;52.614;13.500;2023-09-07T14:32:52;52990.13;;;-143.77;33.72
13836;BME280;6988;52.614;13.500;2023-09-07T14:37:44;53002.44;;;-143.77;33.77
13836;BME280;6988;52.614;13.500;2023-09-07T14:42:36;52981.94;;;-143.77;33.97
13836;BME280;6988;52.614;13.500;2023-09-07T14:47:29;53010.66;;;-143.77;34.00
13836;BME280;6988;52.614;13.500;2023-09-07T14:52:22;53016.81;;;-143.77;34.34
13836;BME280;6988;52.614;13.500;2023-09-07T14:57:15;53055.78;;;-143.77;34.71
13836;BME280;6988;52.614;13.500;2023-09-07T15:02:07;53072.19;;;-143.77;34.64
13836;BME280;6988;52.614;13.500;2023-09-07T15:07:01;53096.78;;;-143.77;34.44
13836;BME280;6988;52.614;13.500;2023-09-07T15:11:53;53102.94;;;-143.77;34.80
13836;BME280;6988;52.614;13.500;2023-09-07T15:16:45;53129.63;;;-143.77;35.47
13836;BME280;6988;52.614;13.500;2023-09-07T15:21:37;53137.81;;;-143.77;35.15
13836;BME280;6988;52.614;13.500;2023-09-07T15:26:41;53180.91;;;-143.77;35.46
13836;BME280;6988;52.614;13.500;2023-09-07T15:31:33;53182.94;;;-143.77;35.21
13836;BME280;6988;52.614;13.500;2023-09-07T15:36:26;53176.78;;;-143.77;35.44
13836;BME280;6988;52.614;13.500;2023-09-07T15:41:17;53201.41;;;-143.77;35.70
13836;BME280;6988;52.614;13.500;2023-09-07T15:46:11;53174.75;;;-143.77;36.36
13836;BME280;6988;52.614;13.500;2023-09-07T15:51:03;53199.34;;;-143.77;36.34
13836;BME280;6988;52.614;13.500;2023-09-07T15:55:55;53232.19;;;-143.77;36.01
13836;BME280;6988;52.614;13.500;2023-09-07T16:00:46;53199.34;;;-143.77;36.20
13836;BME280;6988;52.614;13.500;2023-09-07T16:05:40;53219.88;;;-143.77;36.24
13836;BME280;6988;52.614;13.500;2023-09-07T16:10:32;53209.63;;;-143.77;36.66
13836;BME280;6988;52.614;13.500;2023-09-07T16:15:26;53230.13;;;-143.77;37.21
13836;BME280;6988;52.614;13.500;2023-09-07T16:20:18;53238.34;;;-143.77;37.34
13836;BME280;6988;52.614;13.500;2023-09-07T16:25:11;53244.50;;;-143.77;37.54
13836;BME280;6988;52.614;13.500;2023-09-07T16:30:04;53252.69;;;-143.77;37.63
13836;BME280;6988;52.614;13.500;2023-09-07T16:34:56;53265.00;;;-143.77;38.39
13836;BME280;6988;52.614;13.500;2023-09-07T16:39:50;53277.31;;;-143.77;38.81
13836;BME280;6988;52.614;13.500;2023-09-07T16:44:43;53301.91;;;-143.77;39.39
13836;BME280;6988;52.614;13.500;2023-09-07T16:49:35;53316.28;;;-143.77;39.70
13836;BME280;6988;52.614;13.500;2023-09-07T16:54:27;53289.63;;;-143.77;39.99
13836;BME280;6988;52.614;13.500;2023-09-07T16:59:19;53345.00;;;-143.77;41.17
13836;BME280;6988;52.614;13.500;2023-09-07T17:04:12;53367.56;;;-143.77;41.57
13836;BME280;6988;52.614;13.500;2023-09-07T17:09:04;53371.66;;;-143.77;42.36
13836;BME280;6988;52.614;13.500;2023-09-07T17:13:56;53388.06;;;-143.77;42.73
13836;BME280;6988;52.614;13.500;2023-09-07T17:18:48;53388.06;;;-143.77;43.50
13836;BME280;6988;52.614;13.500;2023-09-07T17:23:41;53445.50;;;-143.77;43.83
13836;BME280;6988;52.614;13.500;2023-09-07T17:28:33;53449.63;;;-143.77;43.94
13836;BME280;6988;52.614;13.500;2023-09-07T17:33:25;53455.78;;;-143.77;44.71
13836;BME280;6988;52.614;13.500;2023-09-07T17:38:17;53447.56;;;-143.77;45.06
13836;BME280;6988;52.614;13.500;2023-09-07T17:43:10;53470.13;;;-143.77;45.50
13836;BME280;6988;52.614;13.500;2023-09-07T17:48:03;53496.81;;;-143.77;46.43
13836;BME280;6988;52.614;13.500;2023-09-07T17:52:54;53484.50;;;-143.77;47.70
13836;BME280;6988;52.614;13.500;2023-09-07T17:57:46;53494.75;;;-143.77;48.68
13836;BME280;6988;52.614;13.500;2023-09-07T18:02:39;53525.53;;;-143.77;49.42
13836;BME280;6988;52.614;13.500;2023-09-07T18:07:31;53486.53;;;-143.77;50.21
13836;BME280;6988;52.614;13.500;2023-09-07T18:12:23;53505.00;;;-143.77;50.94
13836;BME280;6988;52.614;13.500;2023-09-07T18:17:15;53515.25;;;-143.77;51.24
13836;BME280;6988;52.614;13.500;2023-09-07T18:22:08;53543.97;;;-143.77;51.61
13836;BME280;6988;52.614;13.500;2023-09-07T18:27:01;53560.41;;;-143.77;52.15
13836;BME280;6988;52.614;13.500;2023-09-07T18:31:52;53564.50;;;-143.77;52.44
13836;BME280;6988;52.614;13.500;2023-09-07T18:36:44;53548.09;;;-143.77;52.39
13836;BME280;6988;52.614;13.500;2023-09-07T18:41:38;53552.19;;;-143.77;52.47
13836;BME280;6988;52.614;13.500;2023-09-07T18:46:30;53570.66;;;-143.77;52.42
13836;BME280;6988;52.614;13.500;2023-09-07T18:51:22;53613.72;;;-143.77;52.75
13836;BME280;6988;52.614;13.500;2023-09-07T18:56:14;53572.72;;;-143.77;52.62
13836;BME280;6988;52.614;13.500;2023-09-07T19:01:16;53613.72;;;-143.77;53.36
13836;BME280;6988;52.614;13.500;2023-09-07T19:06:08;53599.38;;;-143.77;54.67
13836;BME280;6988;52.614;13.500;2023-09-07T19:11:00;53628.09;;;-143.77;55.46
13836;BME280;6988;52.614;13.500;2023-09-07T19:15:51;53671.19;;;-143.77;56.58
13836;BME280;6988;52.614;13.500;2023-09-07T19:20:52;53687.59;;;-143.77;57.09
13836;BME280;6988;52.614;13.500;2023-09-07T19:25:44;53671.19;;;-143.77;57.23
13836;BME280;6988;52.614;13.500;2023-09-07T19:30:35;53679.38;;;-143.77;57.48
13836;BME280;6988;52.614;13.500;2023-09-07T19:35:27;53673.22;;;-143.77;57.79
13836;BME280;6988;52.614;13.500;2023-09-07T19:40:20;53689.63;;;-143.77;58.02
13836;BME280;6988;52.614;13.500;2023-09-07T19:45:12;53695.78;;;-143.77;58.02
13836;BME280;6988;52.614;13.500;2023-09-07T19:50:06;53704.00;;;-143.77;58.15
13836;BME280;6988;52.614;13.500;2023-09-07T19:54:59;53691.69;;;-143.77;58.22
13836;BME280;6988;52.614;13.500;2023-09-07T19:59:52;53701.94;;;-143.77;58.80
13836;BME280;6988;52.614;13.500;2023-09-07T20:04:44;53736.81;;;-143.77;58.96
13836;BME280;6988;52.614;13.500;2023-09-07T20:09:36;53724.50;;;-143.77;58.89
13836;BME280;6988;52.614;13.500;2023-09-07T20:14:28;53730.66;;;-143.77;59.27
13836;BME280;6988;52.614;13.500;2023-09-07T20:19:21;53726.56;;;-143.77;60.00
13836;BME280;6988;52.614;13.500;2023-09-07T20:24:13;53742.97;;;-143.77;60.83
13836;BME280;6988;52.614;13.500;2023-09-07T20:29:04;53726.56;;;-143.77;61.50
13836;BME280;6988;52.614;13.500;2023-09-07T20:33:57;53757.34;;;-143.77;61.83
13836;BME280;6988;52.614;13.500;2023-09-07T20:38:50;53784.00;;;-143.77;61.78
13836;BME280;6988;52.614;13.500;2023-09-07T20:43:43;53769.66;;;-143.77;62.24
13836;BME280;6988;52.614;13.500;2023-09-07T20:48:35;53794.28;;;-143.77;62.61
13836;BME280;6988;52.614;13.500;2023-09-07T20:53:27;53786.06;;;-143.77;62.85
13836;BME280;6988;52.614;13.500;2023-09-07T20:58:20;53763.50;;;-143.77;62.84
13836;BME280;6988;52.614;13.500;2023-09-07T21:03:12;53779.91;;;-143.77;62.91
13836;BME280;6988;52.614;13.500;2023-09-07T21:08:04;53767.59;;;-143.77;62.89
13836;BME280;6988;52.614;13.500;2023-09-07T21:12:56;53794.28;;;-143.77;63.15
13836;BME280;6988;52.614;13.500;2023-09-07T21:17:50;53810.69;;;-143.77;63.36
13836;BME280;6988;52.614;13.500;2023-09-07T21:22:41;53790.16;;;-143.77;63.67
13836;BME280;6988;52.614;13.500;2023-09-07T21:27:34;53788.13;;;-143.77;63.66
13836;BME280;6988;52.614;13.500;2023-09-07T21:32:26;53802.47;;;-143.77;63.85
13836;BME280;6988;52.614;13.500;2023-09-07T21:37:19;53790.16;;;-143.77;64.17
13836;BME280;6988;52.614;13.500;2023-09-07T21:42:14;53798.38;;;-143.77;64.07
13836;BME280;6988;52.614;13.500;2023-09-07T22:04:39;53835.31;;;-143.77;66.14
13836;BME280;6988;52.614;13.500;2023-09-07T22:09:31;53833.25;;;-143.77;66.36
13836;BME280;6988;52.614;13.500;2023-09-07T22:14:25;53855.81;;;-143.77;66.32
13836;BME280;6988;52.614;13.500;2023-09-07T22:19:17;53841.44;;;-143.77;66.32
13836;BME280;6988;52.614;13.500;2023-09-07T22:24:11;53833.25;;;-143.77;66.48
13836;BME280;6988;52.614;13.500;2023-09-07T22:29:03;53827.09;;;-143.77;66.74
13836;BME280;6988;52.614;13.500;2023-09-07T22:33:55;53890.69;;;-143.77;66.68
13836;BME280;6988;52.614;13.500;2023-09-07T22:38:47;53839.41;;;-143.77;66.76
13836;BME280;6988;52.614;13.500;2023-09-07T22:43:41;53843.50;;;-143.77;66.45
13836;BME280;6988;52.614;13.500;2023-09-07T22:48:34;53882.50;;;-143.77;66.58
13836;BME280;6988;52.614;13.500;2023-09-07T22:53:25;53880.44;;;-143.77;66.49
13836;BME280;6988;52.614;13.500;2023-09-07T22:58:18;53866.06;;;-143.77;66.28
13836;BME280;6988;52.614;13.500;2023-09-07T23:03:13;53864.03;;;-143.77;65.90
13836;BME280;6988;52.614;13.500;2023-09-07T23:08:05;53851.72;;;-143.77;65.53
13836;BME280;6988;52.614;13.500;2023-09-07T23:12:57;53859.91;;;-143.77;66.32
13836;BME280;6988;52.614;13.500;2023-09-07T23:17:49;53876.34;;;-143.77;66.09
13836;BME280;6988;52.614;13.500;2023-09-07T23:22:43;53853.75;;;-143.77;66.27
13836;BME280;6988;52.614;13.500;2023-09-07T23:27:35;53884.53;;;-143.77;66.46
13836;BME280;6988;52.614;13.500;2023-09-07T23:32:27;53847.59;;;-143.77;66.74
13836;BME280;6988;52.614;13.500;2023-09-07T23:37:19;53861.97;;;-143.77;66.88
13836;BME280;6988;52.614;13.500;2023-09-07T23:42:13;53884.53;;;-143.77;67.39
13836;BME280;6988;52.614;13.500;2023-09-07T23:47:05;53923.53;;;-143.77;67.68
13836;BME280;6988;52.614;13.500;2023-09-07T23:51:57;53849.66;;;-143.77;67.85
13836;BME280;6988;52.614;13.500;2023-09-07T23:56:49;53872.22;;;-143.77;67.93
